Time;durP1;ratioP1;P1;durP2;ratioP2;P2;SDS_P1;SDS_P2;PMS_P1;PMS_P2;Temp;Humidity;BMP_temperature;BMP_pressure;BME280_temperature;BME280_humidity;BME280_pressure;Samples;Min_cycle;Max_cycle;Signal;HPM_P1;HPM_P2
2022/12/05 00:01:20;;;;;;;38.47;16.70;;;4.60;99.90;;;;;;5056349;28;19916;-71
2022/12/05 00:03:48;;;;;;;36.33;16.75;;;4.60;99.90;;;;;;5037801;28;20072;-70
2022/12/05 00:06:14;;;;;;;38.45;16.77;;;4.60;99.90;;;;;;5043280;28;20041;-71
2022/12/05 00:08:39;;;;;;;41.97;16.95;;;4.60;99.90;;;;;;5040476;28;20591;-71
2022/12/05 00:11:12;;;;;;;40.53;16.75;;;4.60;99.90;;;;;;5031044;28;20037;-71
2022/12/05 00:13:39;;;;;;;40.72;18.15;;;4.60;99.90;;;;;;5027142;28;20124;-68
2022/12/05 00:16:10;;;;;;;35.05;16.73;;;4.70;99.90;;;;;;5054609;28;20077;-69
2022/12/05 00:18:36;;;;;;;37.33;17.10;;;4.70;99.90;;;;;;5028154;28;20088;-69
2022/12/05 00:21:02;;;;;;;36.33;17.00;;;4.60;99.90;;;;;;5041878;28;20488;-69
2022/12/05 00:23:28;;;;;;;36.78;16.52;;;4.70;99.90;;;;;;5034407;28;20319;-70
2022/12/05 00:25:54;;;;;;;37.67;16.33;;;4.60;99.90;;;;;;5017169;28;20694;-68
2022/12/05 00:28:19;;;;;;;37.72;17.13;;;4.70;99.90;;;;;;5031320;28;20079;-71
2022/12/05 00:30:45;;;;;;;34.50;16.17;;;4.70;99.90;;;;;;5040090;28;20044;-70
2022/12/05 00:33:10;;;;;;;37.63;16.80;;;4.70;99.90;;;;;;5037821;28;20045;-69
2022/12/05 00:35:36;;;;;;;34.90;16.17;;;4.60;99.90;;;;;;5049327;28;20419;-71
2022/12/05 00:38:02;;;;;;;32.88;15.13;;;4.70;99.90;;;;;;5047672;28;20041;-71
2022/12/05 00:40:27;;;;;;;34.08;15.25;;;4.70;99.90;;;;;;5016662;28;20117;-70
2022/12/05 00:42:53;;;;;;;32.30;16.50;;;4.70;99.90;;;;;;5033295;28;20515;-70
2022/12/05 00:45:18;;;;;;;34.08;16.02;;;4.70;99.90;;;;;;5042608;28;20033;-71
2022/12/05 00:47:44;;;;;;;33.80;15.98;;;4.70;99.90;;;;;;5026311;28;20041;-69
2022/12/05 00:50:10;;;;;;;32.55;15.50;;;4.80;99.90;;;;;;5016582;28;20045;-69
2022/12/05 00:52:35;;;;;;;36.50;16.55;;;4.80;99.90;;;;;;5041403;28;20044;-70
2022/12/05 00:55:01;;;;;;;37.13;17.10;;;4.80;99.90;;;;;;5022969;28;20053;-69
2022/12/05 00:57:26;;;;;;;35.50;16.50;;;4.80;99.90;;;;;;5054220;28;20450;-71
2022/12/05 00:59:52;;;;;;;33.88;17.30;;;4.80;99.90;;;;;;5046918;28;20087;-71
2022/12/05 01:02:17;;;;;;;36.10;16.60;;;4.80;99.90;;;;;;5041369;28;20040;-70
2022/12/05 01:04:43;;;;;;;35.72;17.55;;;4.80;99.90;;;;;;5033687;28;20120;-69
2022/12/05 01:07:09;;;;;;;37.83;16.20;;;4.80;99.90;;;;;;5033819;28;20121;-69
2022/12/05 01:09:34;;;;;;;34.30;15.90;;;4.90;99.90;;;;;;5043601;28;20087;-68
2022/12/05 01:12:00;;;;;;;37.03;16.95;;;4.90;99.90;;;;;;5044761;28;20037;-68
2022/12/05 01:14:26;;;;;;;34.05;15.75;;;4.90;99.90;;;;;;5035634;28;20091;-70
2022/12/05 01:16:54;;;;;;;38.20;17.02;;;4.90;99.90;;;;;;5032953;28;20044;-68
2022/12/05 01:19:25;;;;;;;36.78;17.15;;;4.90;99.90;;;;;;5028928;28;20413;-68
2022/12/05 01:21:52;;;;;;;35.50;16.95;;;4.90;99.90;;;;;;5015181;28;20052;-69
2022/12/05 01:24:19;;;;;;;35.92;17.50;;;4.90;99.90;;;;;;5015871;28;20048;-71
2022/12/05 01:26:45;;;;;;;36.47;16.30;;;4.90;99.90;;;;;;5038747;28;20045;-69
2022/12/05 01:29:13;;;;;;;38.15;17.55;;;4.90;99.90;;;;;;5033174;28;20045;-68
2022/12/05 01:31:39;;;;;;;37.40;17.98;;;4.90;99.90;;;;;;5015321;28;20037;-69
2022/12/05 01:34:08;;;;;;;39.65;18.90;;;4.90;99.90;;;;;;5022255;28;20041;-69
2022/12/05 01:36:34;;;;;;;38.75;17.67;;;4.90;99.90;;;;;;5033107;28;20186;-69
2022/12/05 01:39:00;;;;;;;41.22;19.05;;;4.90;99.90;;;;;;5028597;28;20049;-68
2022/12/05 01:41:29;;;;;;;35.90;18.08;;;4.90;99.90;;;;;;5032943;28;20586;-70
2022/12/05 01:43:54;;;;;;;41.25;18.92;;;4.90;99.90;;;;;;5033836;28;20526;-70
2022/12/05 01:46:20;;;;;;;39.28;18.65;;;4.90;99.90;;;;;;5036889;28;20045;-71
2022/12/05 01:48:46;;;;;;;40.55;18.40;;;5.00;99.90;;;;;;5034440;28;20033;-72
2022/12/05 01:51:12;;;;;;;39.63;18.65;;;5.00;99.90;;;;;;5040594;28;20048;-69
2022/12/05 01:53:37;;;;;;;37.08;18.15;;;5.00;99.90;;;;;;5020078;28;20445;-69
2022/12/05 01:56:03;;;;;;;41.00;19.08;;;4.90;99.90;;;;;;5049851;28;20087;-69
2022/12/05 01:58:35;;;;;;;40.95;19.50;;;5.00;99.90;;;;;;5054331;28;20041;-70
2022/12/05 02:01:01;;;;;;;41.17;18.33;;;5.00;99.90;;;;;;5051268;28;20120;-69
2022/12/05 02:03:27;;;;;;;40.35;19.05;;;5.00;99.90;;;;;;5023220;28;20559;-69
2022/12/05 02:05:55;;;;;;;40.65;18.42;;;5.00;99.90;;;;;;5048010;28;20041;-71
2022/12/05 02:08:22;;;;;;;39.75;18.45;;;5.00;99.90;;;;;;5045741;28;20037;-71
2022/12/05 02:10:52;;;;;;;39.35;18.58;;;5.00;99.90;;;;;;5019963;28;20041;-69
2022/12/05 02:14:03;;;;;;;40.63;18.35;;;5.00;99.90;;;;;;5034314;28;20041;-69
2022/12/05 02:16:40;;;;;;;39.67;18.95;;;5.00;99.90;;;;;;5027291;28;20126;-69
2022/12/05 02:19:41;;;;;;;37.30;17.88;;;5.00;99.90;;;;;;5016795;28;20124;-69
2022/12/05 02:22:32;;;;;;;38.88;17.98;;;5.00;99.90;;;;;;5014624;28;20053;-69
2022/12/05 02:24:58;;;;;;;38.20;18.70;;;5.00;99.90;;;;;;5021146;28;20496;-70
2022/12/05 02:27:50;;;;;;;38.90;18.20;;;5.00;99.90;;;;;;5014769;28;20049;-71
2022/12/05 02:30:29;;;;;;;38.63;17.33;;;5.00;99.90;;;;;;5032421;28;20052;-70
2022/12/05 02:33:01;;;;;;;39.30;18.90;;;5.00;99.90;;;;;;5033798;28;20671;-71
2022/12/05 02:35:52;;;;;;;40.47;18.58;;;5.00;99.90;;;;;;5026199;28;20041;-68
2022/12/05 02:38:25;;;;;;;43.22;19.35;;;5.00;99.90;;;;;;5021489;28;20446;-69
2022/12/05 02:41:22;;;;;;;40.10;18.98;;;5.00;99.90;;;;;;5035778;28;20121;-69
2022/12/05 02:44:13;;;;;;;36.78;17.17;;;5.00;99.90;;;;;;5017203;28;20458;-69
2022/12/05 02:46:40;;;;;;;32.90;16.15;;;5.00;99.90;;;;;;5032288;28;20030;-70
2022/12/05 02:49:10;;;;;;;41.40;18.50;;;5.00;99.90;;;;;;5038086;28;20558;-69
2022/12/05 02:51:45;;;;;;;43.88;19.48;;;5.00;99.90;;;;;;5015003;28;20041;-68
2022/12/05 02:54:18;;;;;;;42.80;19.75;;;5.00;99.90;;;;;;5032079;28;20550;-70
2022/12/05 02:56:46;;;;;;;39.95;19.38;;;5.00;99.90;;;;;;5035845;28;20037;-69
2022/12/05 02:59:11;;;;;;;43.53;19.08;;;5.00;99.90;;;;;;5046256;28;20072;-68
2022/12/05 03:01:37;;;;;;;43.05;19.20;;;5.00;99.90;;;;;;5023364;28;20526;-71
2022/12/05 03:04:06;;;;;;;45.20;20.02;;;5.00;99.90;;;;;;5031779;28;20041;-70
2022/12/05 03:06:47;;;;;;;43.42;18.90;;;5.00;99.90;;;;;;5038881;28;20068;-70
2022/12/05 03:09:35;;;;;;;42.97;18.52;;;5.10;99.90;;;;;;5019712;28;20045;-71
2022/12/05 03:12:10;;;;;;;45.63;19.85;;;5.10;99.90;;;;;;5030367;28;20404;-69
2022/12/05 03:14:50;;;;;;;43.55;19.45;;;5.10;99.90;;;;;;5020007;28;20049;-69
2022/12/05 03:17:23;;;;;;;43.85;18.83;;;5.10;99.90;;;;;;5014365;28;20041;-69
2022/12/05 03:19:57;;;;;;;48.63;19.92;;;5.20;99.90;;;;;;5033388;28;20071;-69
2022/12/05 03:22:34;;;;;;;44.65;20.33;;;5.10;99.90;;;;;;5034380;28;20514;-71
2022/12/05 03:25:01;;;;;;;46.83;20.42;;;5.20;99.90;;;;;;5021023;28;20061;-69
2022/12/05 03:27:39;;;;;;;46.42;19.67;;;5.20;99.90;;;;;;5016123;28;20080;-68
2022/12/05 03:30:10;;;;;;;41.95;20.15;;;5.20;99.90;;;;;;5033009;28;20555;-68
2022/12/05 03:32:47;;;;;;;46.63;20.23;;;5.20;99.90;;;;;;5020210;28;20047;-69
2022/12/05 03:35:25;;;;;;;44.83;19.85;;;5.30;99.90;;;;;;5013556;28;20056;-69
2022/12/05 03:38:04;;;;;;;45.90;20.02;;;5.30;99.90;;;;;;5012701;28;20064;-70
2022/12/05 03:40:41;;;;;;;46.40;19.88;;;5.30;99.90;;;;;;5015042;28;20056;-71
2022/12/05 03:43:26;;;;;;;45.33;19.95;;;5.30;99.90;;;;;;5027248;28;20041;-69
2022/12/05 03:46:05;;;;;;;44.78;19.25;;;5.30;99.90;;;;;;5033576;28;20089;-70
2022/12/05 03:48:57;;;;;;;47.15;20.80;;;5.30;99.90;;;;;;5045132;28;20542;-71
2022/12/05 03:51:29;;;;;;;46.08;19.60;;;5.40;99.90;;;;;;5032368;28;20088;-69
2022/12/05 03:54:07;;;;;;;45.58;19.92;;;5.40;99.90;;;;;;5031928;28;20404;-71
2022/12/05 03:56:42;;;;;;;47.40;19.70;;;5.40;99.90;;;;;;5025300;28;20045;-69
2022/12/05 03:59:17;;;;;;;43.00;18.98;;;5.40;99.90;;;;;;5043000;28;20037;-71
2022/12/05 04:01:46;;;;;;;45.40;19.92;;;5.40;99.90;;;;;;5035151;28;20445;-71
2022/12/05 04:04:23;;;;;;;47.30;20.77;;;5.40;99.90;;;;;;5042667;28;20041;-71
2022/12/05 04:06:52;;;;;;;44.78;19.90;;;5.40;99.90;;;;;;5030057;28;20068;-71
2022/12/05 04:09:35;;;;;;;42.15;18.70;;;5.40;99.90;;;;;;5053160;28;20041;-69
2022/12/05 04:12:06;;;;;;;46.05;19.98;;;5.40;99.90;;;;;;5047783;28;20040;-72
2022/12/05 04:14:38;;;;;;;44.70;20.58;;;5.40;99.90;;;;;;5028848;28;20538;-71
2022/12/05 04:17:09;;;;;;;47.00;19.73;;;5.40;99.90;;;;;;5033276;28;20034;-71
2022/12/05 04:22:33;;;;;;;46.22;18.83;;;5.40;99.90;;;;;;5020708;28;20107;-69
2022/12/05 04:28:09;;;;;;;47.17;20.52;;;5.40;99.90;;;;;;5016980;28;20107;-70
2022/12/05 04:30:49;;;;;;;45.88;19.77;;;5.50;99.90;;;;;;5046160;28;20163;-70
2022/12/05 04:33:33;;;;;;;44.30;18.98;;;5.50;99.90;;;;;;5000460;28;20096;-69
2022/12/05 04:36:08;;;;;;;44.53;18.88;;;5.50;99.90;;;;;;5034780;28;20086;-68
2022/12/05 04:38:51;;;;;;;48.60;19.88;;;5.50;99.90;;;;;;5049317;28;20042;-67
2022/12/05 04:41:23;;;;;;;43.78;17.88;;;5.50;99.90;;;;;;5036250;28;20077;-69
2022/12/05 04:43:51;;;;;;;44.80;18.50;;;5.50;99.90;;;;;;5035628;28;20107;-70
2022/12/05 04:46:19;;;;;;;42.33;17.95;;;5.50;99.90;;;;;;5047191;28;20057;-71
2022/12/05 04:48:50;;;;;;;45.38;18.23;;;5.50;99.90;;;;;;5041137;28;20045;-71
2022/12/05 04:51:21;;;;;;;41.50;17.98;;;5.50;99.90;;;;;;5040191;28;20042;-69
2022/12/05 04:53:52;;;;;;;41.92;17.73;;;5.50;99.90;;;;;;5026374;28;20047;-69
2022/12/05 04:56:20;;;;;;;42.28;17.30;;;5.50;99.90;;;;;;5001579;28;20044;-69
2022/12/05 04:58:46;;;;;;;44.67;17.63;;;5.50;99.90;;;;;;5033701;28;20077;-68
2022/12/05 05:01:27;;;;;;;41.60;17.98;;;5.50;99.90;;;;;;5012784;28;20194;-72
2022/12/05 05:04:01;;;;;;;46.10;17.90;;;5.50;99.90;;;;;;5055158;28;20052;-70
2022/12/05 05:06:27;;;;;;;42.15;18.10;;;5.60;99.90;;;;;;5033664;28;20040;-69
2022/12/05 05:08:56;;;;;;;44.78;18.35;;;5.60;99.90;;;;;;5016187;28;20034;-69
2022/12/05 05:11:25;;;;;;;42.65;17.75;;;5.60;99.90;;;;;;5021407;28;20068;-68
2022/12/05 05:13:52;;;;;;;38.83;16.73;;;5.60;99.90;;;;;;5024981;28;20037;-69
2022/12/05 05:16:29;;;;;;;37.70;17.27;;;5.60;99.90;;;;;;5052757;28;20140;-69
2022/12/05 05:18:55;;;;;;;35.45;16.35;;;5.60;99.90;;;;;;5037213;28;20041;-70
2022/12/05 05:21:28;;;;;;;39.38;16.95;;;5.60;99.90;;;;;;5048843;28;20043;-70
2022/12/05 05:23:54;;;;;;;35.28;16.65;;;5.60;99.90;;;;;;5023455;28;20403;-71
2022/12/05 05:26:21;;;;;;;39.75;17.55;;;5.60;99.90;;;;;;5035721;28;20041;-71
2022/12/05 05:28:47;;;;;;;41.95;17.65;;;5.60;99.90;;;;;;5037981;28;20032;-71
2022/12/05 05:31:13;;;;;;;39.90;16.90;;;5.60;99.90;;;;;;5018341;28;20132;-70
2022/12/05 05:33:39;;;;;;;39.38;18.67;;;5.60;99.90;;;;;;5015721;28;20045;-69
2022/12/05 05:36:12;;;;;;;42.05;16.70;;;5.60;99.90;;;;;;5038117;28;20090;-70
2022/12/05 05:38:40;;;;;;;40.22;16.30;;;5.60;99.90;;;;;;5044954;28;20037;-71
2022/12/05 05:41:12;;;;;;;36.92;16.05;;;5.60;99.90;;;;;;5052817;28;20044;-68
2022/12/05 05:43:39;;;;;;;35.47;16.63;;;5.60;99.90;;;;;;5048579;28;20048;-70
2022/12/05 05:46:05;;;;;;;39.08;16.50;;;5.60;99.90;;;;;;5018331;28;20447;-69
2022/12/05 05:48:30;;;;;;;31.83;16.38;;;5.60;99.90;;;;;;5032879;28;20049;-71
2022/12/05 05:51:00;;;;;;;33.40;14.63;;;5.60;99.90;;;;;;5028058;28;20052;-68
2022/12/05 05:53:26;;;;;;;33.33;15.35;;;5.60;99.90;;;;;;5018913;28;20091;-71
2022/12/05 05:55:52;;;;;;;35.90;15.75;;;5.50;99.90;;;;;;5045865;28;20033;-71
2022/12/05 05:58:17;;;;;;;34.88;15.50;;;5.60;99.90;;;;;;5039209;28;20457;-69
2022/12/05 06:00:43;;;;;;;36.55;15.73;;;5.50;99.90;;;;;;5024811;28;20049;-69
2022/12/05 06:03:08;;;;;;;31.35;15.40;;;5.50;99.90;;;;;;5037645;28;20120;-69
2022/12/05 06:05:34;;;;;;;35.13;14.88;;;5.50;99.90;;;;;;5036860;28;20041;-69
2022/12/05 06:08:00;;;;;;;34.38;15.93;;;5.50;99.90;;;;;;5043945;28;20040;-68
2022/12/05 06:10:25;;;;;;;32.17;14.77;;;5.50;99.90;;;;;;5027696;28;20124;-70
2022/12/05 06:12:51;;;;;;;33.80;15.73;;;5.50;99.90;;;;;;5022537;28;20136;-69
2022/12/05 06:15:17;;;;;;;30.67;15.20;;;5.50;99.90;;;;;;5029934;28;20042;-68
2022/12/05 06:17:42;;;;;;;32.22;14.85;;;5.50;99.90;;;;;;5021622;28;20041;-69
2022/12/05 06:20:08;;;;;;;35.97;15.57;;;5.50;99.90;;;;;;5044234;28;20098;-69
2022/12/05 06:22:34;;;;;;;31.35;14.20;;;5.50;99.90;;;;;;5017551;28;20046;-69
2022/12/05 06:25:00;;;;;;;33.58;14.60;;;5.50;99.90;;;;;;5027307;28;20476;-69
2022/12/05 06:27:27;;;;;;;31.42;14.73;;;5.60;99.90;;;;;;5032675;28;20069;-68
2022/12/05 06:29:53;;;;;;;26.63;12.82;;;5.50;99.90;;;;;;5044688;28;20049;-69
2022/12/05 06:32:18;;;;;;;29.73;14.70;;;5.60;99.90;;;;;;5039597;28;20403;-68
2022/12/05 06:34:44;;;;;;;30.45;14.57;;;5.60;99.90;;;;;;5038144;28;20041;-70
2022/12/05 06:37:10;;;;;;;25.73;13.35;;;5.60;99.90;;;;;;5032084;28;20033;-69
2022/12/05 06:39:35;;;;;;;24.48;12.02;;;5.60;99.90;;;;;;5032308;28;20042;-69
2022/12/05 06:42:01;;;;;;;26.90;13.15;;;5.70;99.90;;;;;;5037645;28;20504;-68
2022/12/05 06:44:27;;;;;;;27.15;13.85;;;5.70;99.90;;;;;;5050524;28;20444;-68
2022/12/05 06:46:53;;;;;;;27.17;13.13;;;5.70;99.90;;;;;;5051156;28;20053;-66
2022/12/05 06:49:20;;;;;;;24.30;12.55;;;5.70;99.90;;;;;;5052202;28;20107;-70
2022/12/05 06:51:45;;;;;;;26.00;13.88;;;5.70;99.90;;;;;;5042761;28;20045;-70
2022/12/05 06:54:12;;;;;;;23.23;11.45;;;5.70;99.90;;;;;;5016217;28;20044;-70
2022/12/05 06:56:38;;;;;;;23.98;11.80;;;5.70;99.90;;;;;;5031817;28;20045;-70
2022/12/05 06:59:04;;;;;;;24.88;12.23;;;5.70;99.90;;;;;;5033776;28;20398;-71
2022/12/05 07:01:39;;;;;;;23.73;11.93;;;5.70;99.90;;;;;;5025822;28;20431;-70
2022/12/05 07:04:19;;;;;;;21.55;11.95;;;5.70;99.90;;;;;;5014135;28;20072;-70
2022/12/05 07:06:45;;;;;;;23.25;11.35;;;5.70;99.90;;;;;;5015094;28;20128;-70
2022/12/05 07:09:12;;;;;;;22.15;11.65;;;5.70;99.90;;;;;;5045370;28;20044;-71
2022/12/05 07:11:37;;;;;;;23.58;11.60;;;5.70;99.90;;;;;;5013466;28;20046;-70
2022/12/05 07:14:04;;;;;;;24.90;11.27;;;5.70;99.90;;;;;;5036025;28;20384;-70
2022/12/05 07:16:30;;;;;;;21.10;10.68;;;5.70;99.90;;;;;;5039429;28;20044;-70
2022/12/05 07:18:56;;;;;;;22.55;10.63;;;5.70;99.90;;;;;;5031095;28;20059;-70
2022/12/05 07:21:22;;;;;;;18.13;9.63;;;5.70;99.90;;;;;;5031069;28;20478;-70
2022/12/05 07:23:49;;;;;;;17.30;9.13;;;5.70;99.90;;;;;;5038642;28;20109;-70
2022/12/05 07:26:20;;;;;;;15.82;8.55;;;5.70;99.90;;;;;;5014711;28;20063;-69
2022/12/05 07:28:46;;;;;;;;;;;5.70;99.90;;;;;;5031997;28;20053;-69
2022/12/05 07:31:15;;;;;;;16.50;8.45;;;5.70;99.90;;;;;;5013309;28;19967;-70
2022/12/05 07:33:41;;;;;;;16.90;8.80;;;5.70;99.90;;;;;;5019326;28;20487;-69
2022/12/05 07:36:16;;;;;;;15.85;8.50;;;5.70;99.90;;;;;;5035955;28;20184;-70
2022/12/05 07:38:42;;;;;;;10.35;5.55;;;5.70;99.90;;;;;;5013388;28;20045;-70
2022/12/05 07:41:15;;;;;;;9.40;4.80;;;5.70;99.90;;;;;;5020892;28;20068;-70
2022/12/05 07:43:41;;;;;;;10.98;6.75;;;5.70;99.90;;;;;;5033914;28;20073;-69
2022/12/05 07:46:10;;;;;;;11.20;5.75;;;5.80;99.90;;;;;;5013581;28;20080;-69
2022/12/05 07:48:35;;;;;;;7.75;4.32;;;5.80;99.90;;;;;;5031252;28;20037;-69
2022/12/05 07:51:03;;;;;;;10.35;5.18;;;5.80;99.90;;;;;;5025765;28;20048;-70
2022/12/05 07:53:30;;;;;;;6.75;4.05;;;5.80;99.90;;;;;;5044709;28;20091;-70
2022/12/05 07:56:00;;;;;;;9.25;4.97;;;5.80;99.90;;;;;;5075174;22;20405;-73
2022/12/05 07:58:30;;;;;;;7.68;4.40;;;5.80;99.90;;;;;;5041325;28;20068;-73
2022/12/05 08:00:57;;;;;;;8.98;4.78;;;5.80;99.90;;;;;;5040818;28;20545;-73
2022/12/05 08:03:22;;;;;;;8.63;5.20;;;5.80;99.90;;;;;;5037128;28;20037;-74
2022/12/05 08:05:48;;;;;;;9.48;5.40;;;5.80;99.90;;;;;;5035577;28;20697;-77
2022/12/05 08:08:13;;;;;;;8.43;5.13;;;5.80;99.90;;;;;;5075795;28;20060;-73
2022/12/05 08:10:39;;;;;;;7.70;4.57;;;5.80;99.90;;;;;;5068957;28;20048;-73
2022/12/05 08:13:06;;;;;;;8.15;4.93;;;5.90;99.90;;;;;;5033220;28;20045;-76
2022/12/05 08:15:34;;;;;;;8.98;5.50;;;5.90;99.90;;;;;;5042316;28;20094;-73
2022/12/05 08:17:59;;;;;;;10.45;5.80;;;5.90;99.90;;;;;;5036317;28;20052;-71
2022/12/05 08:20:25;;;;;;;9.02;6.10;;;5.90;99.90;;;;;;5036689;28;20395;-71
2022/12/05 08:22:52;;;;;;;8.93;5.35;;;5.90;99.90;;;;;;5038904;28;20044;-71
2022/12/05 08:25:18;;;;;;;10.63;5.40;;;5.90;99.90;;;;;;5045229;28;20056;-71
2022/12/05 08:27:44;;;;;;;10.13;5.70;;;5.90;99.90;;;;;;5054296;28;20037;-71
2022/12/05 08:30:09;;;;;;;10.38;5.72;;;6.00;99.90;;;;;;5036931;28;20063;-71
2022/12/05 08:32:35;;;;;;;5.93;3.88;;;6.00;99.90;;;;;;5035487;28;20069;-71
2022/12/05 08:35:01;;;;;;;7.35;3.90;;;6.00;99.90;;;;;;5036656;28;20040;-71
2022/12/05 08:37:26;;;;;;;8.70;5.10;;;6.00;99.90;;;;;;5036231;28;20495;-74
2022/12/05 08:39:52;;;;;;;8.68;5.25;;;6.00;99.90;;;;;;5040549;28;20076;-71
2022/12/05 08:42:17;;;;;;;7.47;4.10;;;6.00;99.90;;;;;;5035531;28;20091;-73
2022/12/05 08:44:43;;;;;;;10.35;6.05;;;6.10;99.90;;;;;;5036173;28;20055;-72
2022/12/05 08:47:08;;;;;;;8.32;5.18;;;6.00;99.90;;;;;;5049572;28;20041;-72
2022/12/05 08:49:34;;;;;;;10.63;5.60;;;6.00;99.90;;;;;;5053414;28;20040;-72
2022/12/05 08:51:59;;;;;;;7.40;4.18;;;6.00;99.90;;;;;;5069577;28;20498;-73
2022/12/05 08:54:25;;;;;;;10.10;5.95;;;6.00;99.90;;;;;;5056185;28;20486;-72
2022/12/05 08:56:51;;;;;;;8.98;5.35;;;6.00;99.90;;;;;;5047716;28;20041;-72
2022/12/05 08:59:17;;;;;;;9.77;6.18;;;6.00;99.90;;;;;;5060701;28;20064;-71
2022/12/05 09:01:43;;;;;;;9.88;5.53;;;6.00;99.90;;;;;;5049531;28;20135;-72
2022/12/05 09:04:08;;;;;;;10.90;5.78;;;6.00;99.90;;;;;;5047184;28;20469;-72
2022/12/05 09:06:35;;;;;;;10.32;5.97;;;6.00;99.90;;;;;;5060386;28;20083;-72
2022/12/05 09:09:04;;;;;;;11.35;6.22;;;6.00;99.90;;;;;;5059464;28;20402;-73
2022/12/05 09:11:33;;;;;;;11.45;6.30;;;6.00;99.90;;;;;;5052662;28;20087;-72
2022/12/05 09:14:00;;;;;;;9.52;5.90;;;6.00;99.90;;;;;;5043103;28;20036;-69
2022/12/05 09:16:33;;;;;;;10.45;5.03;;;6.00;99.90;;;;;;5055770;28;20041;-69
2022/12/05 09:18:58;;;;;;;9.75;5.22;;;6.00;99.90;;;;;;5053806;28;20049;-69
2022/12/05 09:21:27;;;;;;;10.63;5.68;;;6.00;99.90;;;;;;5036314;28;20183;-69
2022/12/05 09:23:53;;;;;;;10.35;6.22;;;6.00;99.90;;;;;;5037989;28;20131;-69
2022/12/05 09:26:23;;;;;;;10.10;6.10;;;6.00;99.90;;;;;;5034446;28;20121;-69
2022/12/05 09:28:49;;;;;;;9.15;4.88;;;6.00;99.90;;;;;;5052708;28;20073;-69
2022/12/05 09:31:20;;;;;;;14.45;5.88;;;6.00;99.90;;;;;;5053574;28;20460;-69
2022/12/05 09:33:48;;;;;;;13.13;6.47;;;5.90;99.90;;;;;;5053240;28;20051;-69
2022/12/05 09:36:19;;;;;;;9.05;4.65;;;5.90;99.90;;;;;;5030817;28;20045;-69
2022/12/05 09:38:45;;;;;;;7.63;4.30;;;6.00;99.90;;;;;;5048427;28;20040;-69
2022/12/05 09:44:25;;;;;;;10.38;5.78;;;5.90;99.90;;;;;;5034177;28;20052;-70
2022/12/05 09:47:18;;;;;;;10.70;6.15;;;5.90;99.90;;;;;;5032257;28;20048;-71
2022/12/05 09:49:52;;;;;;;11.15;5.80;;;5.90;99.90;;;;;;5045154;28;20068;-71
2022/12/05 09:52:33;;;;;;;10.32;5.75;;;5.90;99.90;;;;;;5033563;28;20052;-74
2022/12/05 09:55:09;;;;;;;8.60;4.43;;;5.90;99.90;;;;;;5031071;28;20044;-74
2022/12/05 09:57:41;;;;;;;10.93;6.65;;;5.90;99.90;;;;;;5034475;28;20495;-72
2022/12/05 10:00:09;;;;;;;10.60;4.93;;;5.90;99.90;;;;;;5034988;28;20502;-72
2022/12/05 10:02:52;;;;;;;8.52;4.22;;;5.90;99.90;;;;;;5032278;28;20400;-72
2022/12/05 10:05:35;;;;;;;11.80;6.57;;;5.90;99.90;;;;;;5048461;28;20079;-74
2022/12/05 10:08:15;;;;;;;12.40;5.75;;;5.90;99.90;;;;;;5063279;28;20075;-71
2022/12/05 10:10:43;;;;;;;10.88;5.50;;;5.90;99.90;;;;;;5044579;28;20083;-73
2022/12/05 10:13:36;;;;;;;11.68;6.40;;;5.90;99.90;;;;;;5037417;28;20040;-73
2022/12/05 10:16:10;;;;;;;9.63;5.50;;;5.80;99.90;;;;;;5037814;28;20041;-72
2022/12/05 10:18:38;;;;;;;9.75;4.38;;;5.90;99.90;;;;;;5034745;28;20041;-71
2022/12/05 10:21:07;;;;;;;12.25;6.13;;;5.90;99.90;;;;;;5036568;28;20047;-72
2022/12/05 10:23:53;;;;;;;17.10;7.22;;;5.80;99.90;;;;;;5041199;28;20083;-74
2022/12/05 10:26:20;;;;;;;13.57;6.57;;;5.80;99.90;;;;;;5034405;28;20036;-71
2022/12/05 10:28:59;;;;;;;13.38;6.32;;;5.80;99.90;;;;;;5032914;28;20482;-71
2022/12/05 10:31:32;;;;;;;11.95;6.80;;;5.80;99.90;;;;;;5033102;28;20072;-71
2022/12/05 10:34:11;;;;;;;10.82;5.40;;;5.80;99.90;;;;;;5033059;28;20341;-73
2022/12/05 10:36:36;;;;;;;12.20;6.32;;;5.80;99.90;;;;;;5062348;28;20436;-74
2022/12/05 10:39:02;;;;;;;12.15;5.35;;;5.80;99.90;;;;;;5034482;28;20047;-71
2022/12/05 10:41:28;;;;;;;5.95;3.70;;;5.80;99.90;;;;;;5033274;28;20578;-71
2022/12/05 10:43:56;;;;;;;11.70;6.38;;;5.80;99.90;;;;;;5036411;28;20514;-74
2022/12/05 10:46:22;;;;;;;11.18;6.22;;;5.80;99.90;;;;;;5050966;28;20044;-74
2022/12/05 10:48:47;;;;;;;10.50;5.78;;;5.80;99.90;;;;;;5033130;28;20068;-72
2022/12/05 10:51:17;;;;;;;12.27;6.47;;;5.80;99.90;;;;;;5051586;28;20067;-74
2022/12/05 10:53:48;;;;;;;15.07;7.50;;;5.80;99.90;;;;;;5040771;28;20090;-73
2022/12/05 10:56:53;;;;;;;15.30;6.47;;;5.80;99.90;;;;;;5032300;28;20499;-74
2022/12/05 10:59:21;;;;;;;13.93;7.28;;;5.80;99.90;;;;;;5023933;28;20051;-73
2022/12/05 11:01:53;;;;;;;14.75;6.90;;;5.80;99.90;;;;;;5049102;28;20052;-73
2022/12/05 11:04:31;;;;;;;14.40;7.65;;;5.80;99.90;;;;;;5033448;28;20487;-73
2022/12/05 11:07:03;;;;;;;14.77;7.95;;;5.80;99.90;;;;;;5033745;28;20048;-73
2022/12/05 11:09:36;;;;;;;17.38;7.72;;;5.80;99.90;;;;;;5030778;28;20059;-74
2022/12/05 11:12:13;;;;;;;14.05;7.03;;;5.80;99.90;;;;;;5042890;28;20387;-75
2022/12/05 11:14:39;;;;;;;11.95;7.18;;;5.80;99.90;;;;;;5058611;28;20037;-74
2022/12/05 11:17:05;;;;;;;13.75;7.10;;;5.80;99.90;;;;;;5031438;28;20087;-74
2022/12/05 11:19:36;;;;;;;15.65;7.93;;;5.80;99.90;;;;;;5049255;28;20036;-72
2022/12/05 11:22:03;;;;;;;16.88;7.95;;;5.80;99.90;;;;;;5052722;28;20478;-74
2022/12/05 11:24:33;;;;;;;13.05;6.80;;;5.80;99.90;;;;;;5049497;28;20407;-72
2022/12/05 11:27:19;;;;;;;15.93;7.60;;;5.80;99.90;;;;;;5037438;28;20110;-71
2022/12/05 11:29:57;;;;;;;12.45;6.43;;;5.80;99.90;;;;;;5033097;28;20048;-72
2022/12/05 11:32:26;;;;;;;13.90;6.70;;;5.80;99.90;;;;;;5031204;28;20041;-74
2022/12/05 11:35:12;;;;;;;15.90;7.32;;;5.80;99.90;;;;;;5026772;28;20098;-76
2022/12/05 11:37:46;;;;;;;13.55;7.03;;;5.80;99.90;;;;;;5040974;28;20049;-76
2022/12/05 11:40:24;;;;;;;15.60;7.05;;;5.90;99.90;;;;;;5044606;28;20076;-75
2022/12/05 11:43:23;;;;;;;13.57;7.22;;;5.80;99.90;;;;;;5037203;28;20095;-73
2022/12/05 11:46:16;;;;;;;12.95;6.00;;;5.90;99.90;;;;;;5032958;28;20045;-74
2022/12/05 11:48:55;;;;;;;12.88;7.10;;;5.80;99.90;;;;;;5037869;28;20131;-74
2022/12/05 11:51:43;;;;;;;12.95;6.32;;;5.90;99.90;;;;;;5040928;28;20075;-74
2022/12/05 11:54:41;;;;;;;14.27;6.53;;;5.90;99.90;;;;;;5049490;28;20483;-74
2022/12/05 11:57:13;;;;;;;12.45;7.35;;;5.90;99.90;;;;;;5044203;28;20036;-72
2022/12/05 12:00:03;;;;;;;15.27;7.15;;;5.90;99.90;;;;;;5031430;28;20483;-73
2022/12/05 12:02:42;;;;;;;12.23;6.55;;;5.90;99.90;;;;;;5032729;28;20507;-72
2022/12/05 12:05:46;;;;;;;13.75;6.47;;;5.90;99.90;;;;;;5033438;28;20045;-71
2022/12/05 12:08:20;;;;;;;12.55;7.03;;;5.90;99.90;;;;;;5021100;28;20498;-74
2022/12/05 12:11:10;;;;;;;15.02;6.57;;;5.90;99.90;;;;;;5032534;28;20040;-72
2022/12/05 12:14:00;;;;;;;12.50;6.10;;;5.90;99.90;;;;;;5037576;28;20045;-72
2022/12/05 12:16:46;;;;;;;15.10;6.50;;;5.90;99.90;;;;;;5040818;28;20052;-72
2022/12/05 12:19:36;;;;;;;10.93;5.80;;;5.90;99.90;;;;;;5032703;28;20483;-72
2022/12/05 12:22:30;;;;;;;12.55;6.75;;;5.90;99.90;;;;;;5013496;28;20536;-72
2022/12/05 12:25:21;;;;;;;12.05;6.10;;;5.80;99.90;;;;;;5040971;28;20117;-73
2022/12/05 12:28:18;;;;;;;10.90;4.85;;;5.90;99.90;;;;;;5046983;28;20108;-71
2022/12/05 12:31:02;;;;;;;11.32;6.32;;;5.90;99.90;;;;;;5046026;28;20052;-72
2022/12/05 12:33:55;;;;;;;11.80;6.38;;;5.90;99.90;;;;;;5049425;28;20055;-69
2022/12/05 12:36:31;;;;;;;9.82;5.15;;;5.80;99.90;;;;;;5048575;28;20069;-73
2022/12/05 12:38:59;;;;;;;10.98;5.75;;;5.80;99.90;;;;;;5035929;28;20041;-73
2022/12/05 12:41:40;;;;;;;13.90;6.22;;;5.90;99.90;;;;;;5040346;28;20037;-73
2022/12/05 12:44:44;;;;;;;8.25;4.90;;;5.90;99.90;;;;;;5033766;28;20048;-71
2022/12/05 12:47:27;;;;;;;9.48;5.05;;;5.90;99.90;;;;;;5036693;28;20136;-68
2022/12/05 12:50:10;;;;;;;9.20;4.90;;;5.90;99.90;;;;;;5050429;28;20068;-68
2022/12/05 12:53:12;;;;;;;10.25;5.10;;;5.90;99.90;;;;;;5046282;28;20087;-70
2022/12/05 12:56:10;;;;;;;9.27;5.00;;;5.80;99.90;;;;;;5037866;28;20036;-71
2022/12/05 12:58:45;;;;;;;8.48;4.60;;;5.80;99.90;;;;;;5030708;28;20064;-70
2022/12/05 13:01:41;;;;;;;8.75;4.65;;;5.90;99.90;;;;;;5033354;28;20052;-69
2022/12/05 13:04:11;;;;;;;7.55;4.65;;;5.90;99.90;;;;;;5041184;28;20318;-71
2022/12/05 13:07:05;;;;;;;7.20;3.95;;;5.90;99.90;;;;;;5034736;28;20082;-69
2022/12/05 13:09:49;;;;;;;10.57;4.50;;;5.90;99.90;;;;;;5036061;28;20453;-67
2022/12/05 13:12:18;;;;;;;8.43;4.53;;;5.80;99.90;;;;;;5035364;28;20048;-69
2022/12/05 13:14:59;;;;;;;8.45;4.65;;;5.80;99.90;;;;;;5060573;28;20044;-69
2022/12/05 13:17:25;;;;;;;8.70;4.40;;;5.80;99.90;;;;;;5061972;28;20580;-69